Mielec, Poland
Current Conditions -  °F | °C
As of 11:00 PM on Thursday 18 Dec 2014 (Local Time) from EPRZ Reporting Station
Broken Clouds Broken Clouds  
Wind Chill: 32°   Ceiling: 3600
Heat Index: 39°   Visibility: 6mi
Dew Point: 36°   Wind: 10mph
Humidity: 87%   Direction: 210°SSW
Pressure: 29.94"   Gusts: NA
Location:  50.29°N, 21.43°E
Report Text: EPRZ 182100Z 21009KT 9999 BKN036 04/02 Q1014
Loading
Personal Weather Stations






























Interactive Weather Map New forecast layout! Learn more

10-Day Weather Forecast

Advertisements
Track Severe Weather on mobile